sensor_id;sensor_type;location;lat;lon;timestamp;P1;durP1;ratioP1;P2;durP2;ratioP2
68800;SDS011;55784;50.734;7.086;2022-12-07T00:00:39;23.37;;;8.87;;
68800;SDS011;55784;50.734;7.086;2022-12-07T00:03:05;22.30;;;8.37;;
68800;SDS011;55784;50.734;7.086;2022-12-07T00:05:30;22.85;;;8.82;;
68800;SDS011;55784;50.734;7.086;2022-12-07T00:07:55;25.57;;;9.10;;
68800;SDS011;55784;50.734;7.086;2022-12-07T00:10:21;24.80;;;9.13;;
68800;SDS011;55784;50.734;7.086;2022-12-07T00:12:46;25.23;;;9.40;;
68800;SDS011;55784;50.734;7.086;2022-12-07T00:15:11;23.77;;;9.10;;
68800;SDS011;55784;50.734;7.086;2022-12-07T00:17:36;26.60;;;9.53;;
68800;SDS011;55784;50.734;7.086;2022-12-07T00:20:02;24.97;;;8.93;;
68800;SDS011;55784;50.734;7.086;2022-12-07T00:22:27;23.75;;;9.32;;
68800;SDS011;55784;50.734;7.086;2022-12-07T00:24:53;26.17;;;9.57;;
68800;SDS011;55784;50.734;7.086;2022-12-07T00:27:18;28.20;;;9.80;;
68800;SDS011;55784;50.734;7.086;2022-12-07T00:29:43;25.07;;;9.73;;
68800;SDS011;55784;50.734;7.086;2022-12-07T00:32:09;26.17;;;8.90;;
68800;SDS011;55784;50.734;7.086;2022-12-07T00:34:34;24.63;;;9.67;;
68800;SDS011;55784;50.734;7.086;2022-12-07T00:36:59;22.97;;;8.90;;
68800;SDS011;55784;50.734;7.086;2022-12-07T00:39:25;24.38;;;9.15;;
68800;SDS011;55784;50.734;7.086;2022-12-07T00:41:50;24.77;;;9.73;;
68800;SDS011;55784;50.734;7.086;2022-12-07T00:44:15;25.87;;;9.57;;
68800;SDS011;55784;50.734;7.086;2022-12-07T00:46:41;26.83;;;9.97;;
68800;SDS011;55784;50.734;7.086;2022-12-07T00:49:06;25.73;;;9.63;;
68800;SDS011;55784;50.734;7.086;2022-12-07T00:51:32;24.53;;;9.30;;
68800;SDS011;55784;50.734;7.086;2022-12-07T00:53:57;23.00;;;9.43;;
68800;SDS011;55784;50.734;7.086;2022-12-07T00:56:24;24.33;;;9.48;;
68800;SDS011;55784;50.734;7.086;2022-12-07T00:59:01;22.87;;;9.47;;
68800;SDS011;55784;50.734;7.086;2022-12-07T01:01:29;22.60;;;8.85;;
68800;SDS011;55784;50.734;7.086;2022-12-07T01:03:56;22.70;;;9.60;;
68800;SDS011;55784;50.734;7.086;2022-12-07T01:06:22;22.97;;;9.20;;
68800;SDS011;55784;50.734;7.086;2022-12-07T01:08:49;23.20;;;9.57;;
68800;SDS011;55784;50.734;7.086;2022-12-07T01:11:15;26.83;;;10.57;;
68800;SDS011;55784;50.734;7.086;2022-12-07T01:13:42;24.17;;;9.73;;
68800;SDS011;55784;50.734;7.086;2022-12-07T01:16:09;26.35;;;10.50;;
68800;SDS011;55784;50.734;7.086;2022-12-07T01:18:36;24.60;;;10.45;;
68800;SDS011;55784;50.734;7.086;2022-12-07T01:23:38;26.00;;;11.40;;
68800;SDS011;55784;50.734;7.086;2022-12-07T01:26:05;26.02;;;10.60;;
68800;SDS011;55784;50.734;7.086;2022-12-07T01:28:31;28.42;;;11.32;;
68800;SDS011;55784;50.734;7.086;2022-12-07T01:31:02;28.48;;;10.77;;
68800;SDS011;55784;50.734;7.086;2022-12-07T01:33:34;27.90;;;11.00;;
68800;SDS011;55784;50.734;7.086;2022-12-07T01:36:07;25.48;;;10.27;;
68800;SDS011;55784;50.734;7.086;2022-12-07T01:38:37;26.77;;;11.20;;
68800;SDS011;55784;50.734;7.086;2022-12-07T01:41:03;27.70;;;11.30;;
68800;SDS011;55784;50.734;7.086;2022-12-07T01:43:29;27.20;;;10.83;;
68800;SDS011;55784;50.734;7.086;2022-12-07T01:45:56;28.33;;;10.38;;
68800;SDS011;55784;50.734;7.086;2022-12-07T01:48:24;25.30;;;9.80;;
68800;SDS011;55784;50.734;7.086;2022-12-07T01:51:11;25.63;;;10.48;;
68800;SDS011;55784;50.734;7.086;2022-12-07T01:53:39;27.80;;;10.88;;
68800;SDS011;55784;50.734;7.086;2022-12-07T01:56:08;27.17;;;10.63;;
68800;SDS011;55784;50.734;7.086;2022-12-07T01:58:37;25.40;;;10.00;;
68800;SDS011;55784;50.734;7.086;2022-12-07T02:01:03;26.60;;;10.93;;
68800;SDS011;55784;50.734;7.086;2022-12-07T02:03:30;29.33;;;11.40;;
68800;SDS011;55784;50.734;7.086;2022-12-07T02:06:00;30.02;;;12.07;;
68800;SDS011;55784;50.734;7.086;2022-12-07T02:08:26;28.30;;;11.80;;
68800;SDS011;55784;50.734;7.086;2022-12-07T02:10:52;29.10;;;11.67;;
68800;SDS011;55784;50.734;7.086;2022-12-07T02:13:20;30.47;;;12.03;;
68800;SDS011;55784;50.734;7.086;2022-12-07T02:15:56;34.42;;;11.85;;
68800;SDS011;55784;50.734;7.086;2022-12-07T02:18:41;28.65;;;11.32;;
68800;SDS011;55784;50.734;7.086;2022-12-07T02:32:59;30.30;;;11.60;;
68800;SDS011;55784;50.734;7.086;2022-12-07T02:35:36;31.97;;;11.47;;
68800;SDS011;55784;50.734;7.086;2022-12-07T02:38:17;29.85;;;11.93;;
68800;SDS011;55784;50.734;7.086;2022-12-07T02:43:33;32.05;;;12.68;;
68800;SDS011;55784;50.734;7.086;2022-12-07T02:46:11;29.75;;;11.93;;
68800;SDS011;55784;50.734;7.086;2022-12-07T02:48:39;31.63;;;11.80;;
68800;SDS011;55784;50.734;7.086;2022-12-07T02:51:06;28.25;;;11.85;;
68800;SDS011;55784;50.734;7.086;2022-12-07T02:53:33;31.37;;;11.30;;
68800;SDS011;55784;50.734;7.086;2022-12-07T02:56:07;29.58;;;11.73;;
68800;SDS011;55784;50.734;7.086;2022-12-07T03:10:16;31.30;;;11.70;;
68800;SDS011;55784;50.734;7.086;2022-12-07T03:15:31;29.98;;;11.55;;
68800;SDS011;55784;50.734;7.086;2022-12-07T03:18:06;31.00;;;12.15;;
68800;SDS011;55784;50.734;7.086;2022-12-07T03:20:34;31.60;;;12.33;;
68800;SDS011;55784;50.734;7.086;2022-12-07T03:23:04;31.70;;;12.13;;
68800;SDS011;55784;50.734;7.086;2022-12-07T03:25:34;32.30;;;12.52;;
68800;SDS011;55784;50.734;7.086;2022-12-07T03:28:05;29.85;;;11.65;;
68800;SDS011;55784;50.734;7.086;2022-12-07T03:33:24;33.10;;;12.00;;
68800;SDS011;55784;50.734;7.086;2022-12-07T03:38:28;32.92;;;12.80;;
68800;SDS011;55784;50.734;7.086;2022-12-07T03:41:07;30.52;;;12.50;;
68800;SDS011;55784;50.734;7.086;2022-12-07T03:43:38;30.35;;;13.05;;
68800;SDS011;55784;50.734;7.086;2022-12-07T03:48:57;27.65;;;11.25;;
68800;SDS011;55784;50.734;7.086;2022-12-07T03:51:41;28.80;;;11.88;;
68800;SDS011;55784;50.734;7.086;2022-12-07T03:54:23;29.13;;;11.50;;
68800;SDS011;55784;50.734;7.086;2022-12-07T03:56:53;30.63;;;12.35;;
68800;SDS011;55784;50.734;7.086;2022-12-07T03:59:20;31.90;;;12.37;;
68800;SDS011;55784;50.734;7.086;2022-12-07T04:01:51;28.50;;;11.38;;
68800;SDS011;55784;50.734;7.086;2022-12-07T04:04:19;30.00;;;12.20;;
68800;SDS011;55784;50.734;7.086;2022-12-07T04:06:45;25.15;;;10.82;;
68800;SDS011;55784;50.734;7.086;2022-12-07T04:09:10;29.50;;;12.27;;
68800;SDS011;55784;50.734;7.086;2022-12-07T04:11:36;27.40;;;11.30;;
68800;SDS011;55784;50.734;7.086;2022-12-07T04:14:01;29.13;;;11.80;;
68800;SDS011;55784;50.734;7.086;2022-12-07T04:16:45;27.73;;;11.15;;
68800;SDS011;55784;50.734;7.086;2022-12-07T04:19:18;32.43;;;12.90;;
68800;SDS011;55784;50.734;7.086;2022-12-07T04:21:45;29.08;;;11.38;;
68800;SDS011;55784;50.734;7.086;2022-12-07T04:24:11;28.85;;;11.68;;
68800;SDS011;55784;50.734;7.086;2022-12-07T04:26:38;29.40;;;12.10;;
68800;SDS011;55784;50.734;7.086;2022-12-07T04:29:03;30.10;;;13.03;;
68800;SDS011;55784;50.734;7.086;2022-12-07T04:31:29;28.13;;;11.80;;
68800;SDS011;55784;50.734;7.086;2022-12-07T04:33:54;27.87;;;11.07;;
68800;SDS011;55784;50.734;7.086;2022-12-07T04:36:19;32.50;;;12.27;;
68800;SDS011;55784;50.734;7.086;2022-12-07T04:38:45;32.05;;;13.43;;
68800;SDS011;55784;50.734;7.086;2022-12-07T04:41:11;33.28;;;12.38;;
68800;SDS011;55784;50.734;7.086;2022-12-07T04:43:36;32.80;;;12.47;;
68800;SDS011;55784;50.734;7.086;2022-12-07T04:46:02;31.50;;;12.10;;
68800;SDS011;55784;50.734;7.086;2022-12-07T04:48:28;33.08;;;13.02;;
68800;SDS011;55784;50.734;7.086;2022-12-07T04:50:53;33.40;;;13.63;;
68800;SDS011;55784;50.734;7.086;2022-12-07T04:53:18;37.27;;;12.63;;
68800;SDS011;55784;50.734;7.086;2022-12-07T04:55:44;36.53;;;13.30;;
68800;SDS011;55784;50.734;7.086;2022-12-07T04:58:10;30.65;;;11.93;;
68800;SDS011;55784;50.734;7.086;2022-12-07T05:00:36;33.38;;;11.98;;
68800;SDS011;55784;50.734;7.086;2022-12-07T05:03:01;29.03;;;11.80;;
68800;SDS011;55784;50.734;7.086;2022-12-07T05:05:26;33.73;;;11.90;;
68800;SDS011;55784;50.734;7.086;2022-12-07T05:07:52;30.57;;;12.00;;
68800;SDS011;55784;50.734;7.086;2022-12-07T05:10:17;30.02;;;11.93;;
68800;SDS011;55784;50.734;7.086;2022-12-07T05:12:43;29.77;;;11.23;;
68800;SDS011;55784;50.734;7.086;2022-12-07T05:15:08;29.40;;;11.50;;
68800;SDS011;55784;50.734;7.086;2022-12-07T05:17:34;31.00;;;11.90;;
68800;SDS011;55784;50.734;7.086;2022-12-07T05:19:59;34.00;;;12.43;;
68800;SDS011;55784;50.734;7.086;2022-12-07T05:22:24;35.67;;;12.63;;
68800;SDS011;55784;50.734;7.086;2022-12-07T05:24:53;29.70;;;11.67;;
68800;SDS011;55784;50.734;7.086;2022-12-07T05:27:19;30.55;;;11.40;;
68800;SDS011;55784;50.734;7.086;2022-12-07T05:29:44;32.40;;;12.50;;
68800;SDS011;55784;50.734;7.086;2022-12-07T05:32:09;32.77;;;11.40;;
68800;SDS011;55784;50.734;7.086;2022-12-07T05:34:35;33.92;;;11.52;;
68800;SDS011;55784;50.734;7.086;2022-12-07T05:37:03;30.87;;;11.33;;
68800;SDS011;55784;50.734;7.086;2022-12-07T05:39:29;31.75;;;11.60;;
68800;SDS011;55784;50.734;7.086;2022-12-07T05:41:54;31.17;;;10.70;;
68800;SDS011;55784;50.734;7.086;2022-12-07T05:44:38;29.17;;;10.75;;
68800;SDS011;55784;50.734;7.086;2022-12-07T05:47:04;26.67;;;11.35;;
68800;SDS011;55784;50.734;7.086;2022-12-07T05:49:29;32.73;;;10.63;;
68800;SDS011;55784;50.734;7.086;2022-12-07T05:51:55;28.27;;;10.70;;
68800;SDS011;55784;50.734;7.086;2022-12-07T05:54:20;28.20;;;10.27;;
68800;SDS011;55784;50.734;7.086;2022-12-07T05:56:46;26.95;;;9.82;;
68800;SDS011;55784;50.734;7.086;2022-12-07T05:59:11;26.23;;;9.97;;
68800;SDS011;55784;50.734;7.086;2022-12-07T06:01:52;27.67;;;10.97;;
68800;SDS011;55784;50.734;7.086;2022-12-07T06:04:25;26.00;;;10.38;;
68800;SDS011;55784;50.734;7.086;2022-12-07T06:06:52;29.35;;;10.13;;
68800;SDS011;55784;50.734;7.086;2022-12-07T06:09:18;26.98;;;9.77;;
68800;SDS011;55784;50.734;7.086;2022-12-07T06:11:45;28.17;;;10.07;;
68800;SDS011;55784;50.734;7.086;2022-12-07T06:14:29;29.90;;;10.18;;
68800;SDS011;55784;50.734;7.086;2022-12-07T06:16:54;30.27;;;10.20;;
68800;SDS011;55784;50.734;7.086;2022-12-07T06:19:20;29.80;;;12.20;;
68800;SDS011;55784;50.734;7.086;2022-12-07T06:21:45;29.27;;;10.10;;
68800;SDS011;55784;50.734;7.086;2022-12-07T06:24:11;30.03;;;11.17;;
68800;SDS011;55784;50.734;7.086;2022-12-07T06:26:38;29.70;;;10.27;;
68800;SDS011;55784;50.734;7.086;2022-12-07T06:29:04;32.28;;;11.38;;
68800;SDS011;55784;50.734;7.086;2022-12-07T06:31:29;30.30;;;11.33;;
68800;SDS011;55784;50.734;7.086;2022-12-07T06:33:59;30.37;;;11.63;;
68800;SDS011;55784;50.734;7.086;2022-12-07T06:36:25;33.20;;;11.70;;
68800;SDS011;55784;50.734;7.086;2022-12-07T06:38:51;31.07;;;11.53;;
68800;SDS011;55784;50.734;7.086;2022-12-07T06:41:17;29.80;;;11.05;;
68800;SDS011;55784;50.734;7.086;2022-12-07T06:43:42;30.33;;;10.63;;
68800;SDS011;55784;50.734;7.086;2022-12-07T06:46:07;34.37;;;11.20;;
68800;SDS011;55784;50.734;7.086;2022-12-07T06:48:33;33.47;;;11.43;;
68800;SDS011;55784;50.734;7.086;2022-12-07T06:50:58;31.67;;;11.03;;
68800;SDS011;55784;50.734;7.086;2022-12-07T06:53:24;34.20;;;12.07;;
68800;SDS011;55784;50.734;7.086;2022-12-07T06:55:49;34.07;;;11.37;;
68800;SDS011;55784;50.734;7.086;2022-12-07T06:58:15;39.90;;;12.93;;
68800;SDS011;55784;50.734;7.086;2022-12-07T07:00:40;32.17;;;11.23;;
68800;SDS011;55784;50.734;7.086;2022-12-07T07:03:06;29.43;;;10.37;;
68800;SDS011;55784;50.734;7.086;2022-12-07T07:05:31;30.25;;;10.88;;
68800;SDS011;55784;50.734;7.086;2022-12-07T07:07:57;27.20;;;9.63;;
68800;SDS011;55784;50.734;7.086;2022-12-07T07:10:22;24.40;;;9.00;;
68800;SDS011;55784;50.734;7.086;2022-12-07T07:12:47;26.77;;;9.27;;
68800;SDS011;55784;50.734;7.086;2022-12-07T07:15:13;23.97;;;8.27;;
68800;SDS011;55784;50.734;7.086;2022-12-07T07:17:42;23.48;;;8.23;;
68800;SDS011;55784;50.734;7.086;2022-12-07T07:20:07;21.93;;;7.87;;
68800;SDS011;55784;50.734;7.086;2022-12-07T07:22:33;22.63;;;7.75;;
68800;SDS011;55784;50.734;7.086;2022-12-07T07:24:58;20.07;;;7.17;;
68800;SDS011;55784;50.734;7.086;2022-12-07T07:27:24;20.25;;;7.43;;
68800;SDS011;55784;50.734;7.086;2022-12-07T07:29:49;20.17;;;6.87;;
68800;SDS011;55784;50.734;7.086;2022-12-07T07:32:18;19.63;;;7.25;;
68800;SDS011;55784;50.734;7.086;2022-12-07T07:34:44;23.90;;;7.93;;
68800;SDS011;55784;50.734;7.086;2022-12-07T07:37:09;19.92;;;7.20;;
68800;SDS011;55784;50.734;7.086;2022-12-07T07:39:37;20.20;;;7.43;;
68800;SDS011;55784;50.734;7.086;2022-12-07T07:42:03;20.05;;;7.32;;
68800;SDS011;55784;50.734;7.086;2022-12-07T07:44:29;23.57;;;7.80;;
68800;SDS011;55784;50.734;7.086;2022-12-07T07:46:54;21.90;;;8.30;;
68800;SDS011;55784;50.734;7.086;2022-12-07T07:49:19;21.20;;;7.77;;
68800;SDS011;55784;50.734;7.086;2022-12-07T07:51:45;24.50;;;8.60;;
68800;SDS011;55784;50.734;7.086;2022-12-07T07:54:10;23.10;;;8.80;;
68800;SDS011;55784;50.734;7.086;2022-12-07T07:56:36;24.58;;;8.23;;
68800;SDS011;55784;50.734;7.086;2022-12-07T07:59:01;23.73;;;9.17;;
68800;SDS011;55784;50.734;7.086;2022-12-07T08:01:27;25.10;;;8.70;;
68800;SDS011;55784;50.734;7.086;2022-12-07T08:03:52;22.60;;;8.57;;
68800;SDS011;55784;50.734;7.086;2022-12-07T08:06:17;27.80;;;8.90;;
68800;SDS011;55784;50.734;7.086;2022-12-07T08:08:43;29.48;;;9.95;;
68800;SDS011;55784;50.734;7.086;2022-12-07T08:11:08;26.80;;;9.25;;
68800;SDS011;55784;50.734;7.086;2022-12-07T08:13:35;25.43;;;8.93;;
68800;SDS011;55784;50.734;7.086;2022-12-07T08:16:04;24.83;;;8.73;;
68800;SDS011;55784;50.734;7.086;2022-12-07T08:18:34;23.98;;;9.02;;
68800;SDS011;55784;50.734;7.086;2022-12-07T08:21:02;24.98;;;9.07;;
68800;SDS011;55784;50.734;7.086;2022-12-07T08:23:28;25.15;;;9.07;;
68800;SDS011;55784;50.734;7.086;2022-12-07T08:25:54;23.37;;;8.27;;
68800;SDS011;55784;50.734;7.086;2022-12-07T08:28:20;25.35;;;9.40;;
68800;SDS011;55784;50.734;7.086;2022-12-07T08:30:45;28.60;;;9.70;;
68800;SDS011;55784;50.734;7.086;2022-12-07T08:33:10;27.00;;;9.53;;
68800;SDS011;55784;50.734;7.086;2022-12-07T08:35:36;34.07;;;9.23;;
68800;SDS011;55784;50.734;7.086;2022-12-07T08:38:01;25.87;;;8.70;;
68800;SDS011;55784;50.734;7.086;2022-12-07T08:40:28;26.88;;;8.25;;
68800;SDS011;55784;50.734;7.086;2022-12-07T08:43:02;21.33;;;8.15;;
68800;SDS011;55784;50.734;7.086;2022-12-07T08:45:27;20.90;;;8.00;;
68800;SDS011;55784;50.734;7.086;2022-12-07T08:47:58;23.13;;;8.30;;
68800;SDS011;55784;50.734;7.086;2022-12-07T08:50:29;22.55;;;8.45;;
68800;SDS011;55784;50.734;7.086;2022-12-07T08:52:56;22.27;;;8.35;;
68800;SDS011;55784;50.734;7.086;2022-12-07T08:55:24;23.95;;;8.65;;
68800;SDS011;55784;50.734;7.086;2022-12-07T08:57:49;25.95;;;9.20;;
68800;SDS011;55784;50.734;7.086;2022-12-07T09:00:18;24.65;;;8.57;;
68800;SDS011;55784;50.734;7.086;2022-12-07T09:02:44;23.88;;;8.98;;
68800;SDS011;55784;50.734;7.086;2022-12-07T09:05:10;24.77;;;8.27;;
68800;SDS011;55784;50.734;7.086;2022-12-07T09:07:36;22.10;;;8.50;;
68800;SDS011;55784;50.734;7.086;2022-12-07T09:10:07;21.65;;;8.23;;
68800;SDS011;55784;50.734;7.086;2022-12-07T09:12:33;24.55;;;8.68;;
68800;SDS011;55784;50.734;7.086;2022-12-07T09:14:58;25.40;;;8.87;;
68800;SDS011;55784;50.734;7.086;2022-12-07T09:17:25;23.23;;;7.72;;
68800;SDS011;55784;50.734;7.086;2022-12-07T09:19:50;24.43;;;7.80;;
68800;SDS011;55784;50.734;7.086;2022-12-07T09:22:16;20.20;;;7.00;;
68800;SDS011;55784;50.734;7.086;2022-12-07T09:24:41;19.17;;;6.87;;
68800;SDS011;55784;50.734;7.086;2022-12-07T09:27:07;19.57;;;6.70;;
68800;SDS011;55784;50.734;7.086;2022-12-07T09:29:32;19.00;;;7.35;;
68800;SDS011;55784;50.734;7.086;2022-12-07T09:31:57;17.40;;;6.50;;
68800;SDS011;55784;50.734;7.086;2022-12-07T09:34:23;19.00;;;7.30;;
68800;SDS011;55784;50.734;7.086;2022-12-07T09:36:48;21.87;;;7.10;;
68800;SDS011;55784;50.734;7.086;2022-12-07T09:39:14;21.80;;;7.20;;
68800;SDS011;55784;50.734;7.086;2022-12-07T09:41:42;20.45;;;7.55;;
68800;SDS011;55784;50.734;7.086;2022-12-07T09:44:10;20.13;;;7.50;;
68800;SDS011;55784;50.734;7.086;2022-12-07T09:46:41;19.90;;;7.20;;
68800;SDS011;55784;50.734;7.086;2022-12-07T09:49:14;18.70;;;6.78;;
68800;SDS011;55784;50.734;7.086;2022-12-07T09:52:03;18.45;;;7.18;;
68800;SDS011;55784;50.734;7.086;2022-12-07T09:54:45;19.40;;;6.00;;
68800;SDS011;55784;50.734;7.086;2022-12-07T09:57:12;19.17;;;7.13;;
68800;SDS011;55784;50.734;7.086;2022-12-07T09:59:38;15.95;;;5.65;;
68800;SDS011;55784;50.734;7.086;2022-12-07T10:02:25;15.60;;;6.05;;
68800;SDS011;55784;50.734;7.086;2022-12-07T10:04:54;16.47;;;5.53;;
68800;SDS011;55784;50.734;7.086;2022-12-07T10:07:21;15.43;;;6.22;;
68800;SDS011;55784;50.734;7.086;2022-12-07T10:09:46;16.27;;;5.87;;
68800;SDS011;55784;50.734;7.086;2022-12-07T10:12:11;16.87;;;5.90;;
68800;SDS011;55784;50.734;7.086;2022-12-07T10:14:38;16.35;;;5.93;;
68800;SDS011;55784;50.734;7.086;2022-12-07T10:25:36;16.25;;;4.88;;
68800;SDS011;55784;50.734;7.086;2022-12-07T10:35:56;13.35;;;4.95;;
68800;SDS011;55784;50.734;7.086;2022-12-07T10:38:21;12.90;;;4.40;;
68800;SDS011;55784;50.734;7.086;2022-12-07T10:40:46;13.97;;;4.90;;
68800;SDS011;55784;50.734;7.086;2022-12-07T10:48:16;14.82;;;5.85;;
68800;SDS011;55784;50.734;7.086;2022-12-07T10:59:53;13.43;;;5.07;;
68800;SDS011;55784;50.734;7.086;2022-12-07T11:02:32;12.60;;;4.82;;
68800;SDS011;55784;50.734;7.086;2022-12-07T11:18:39;12.23;;;3.97;;
68800;SDS011;55784;50.734;7.086;2022-12-07T11:21:57;9.82;;;3.42;;
68800;SDS011;55784;50.734;7.086;2022-12-07T11:29:39;11.05;;;3.28;;
68800;SDS011;55784;50.734;7.086;2022-12-07T11:32:17;11.18;;;3.20;;
68800;SDS011;55784;50.734;7.086;2022-12-07T11:37:36;9.88;;;2.92;;
68800;SDS011;55784;50.734;7.086;2022-12-07T11:40:04;11.47;;;3.17;;
68800;SDS011;55784;50.734;7.086;2022-12-07T11:42:41;12.23;;;2.83;;
68800;SDS011;55784;50.734;7.086;2022-12-07T11:45:21;10.13;;;3.05;;
68800;SDS011;55784;50.734;7.086;2022-12-07T11:47:55;10.10;;;2.88;;
68800;SDS011;55784;50.734;7.086;2022-12-07T11:50:40;10.93;;;3.22;;
68800;SDS011;55784;50.734;7.086;2022-12-07T11:53:22;8.73;;;2.83;;
68800;SDS011;55784;50.734;7.086;2022-12-07T11:56:00;9.90;;;3.20;;
68800;SDS011;55784;50.734;7.086;2022-12-07T12:03:45;12.15;;;3.17;;
68800;SDS011;55784;50.734;7.086;2022-12-07T12:06:12;10.80;;;3.30;;
68800;SDS011;55784;50.734;7.086;2022-12-07T12:08:39;11.40;;;3.13;;
68800;SDS011;55784;50.734;7.086;2022-12-07T12:19:25;10.98;;;3.42;;
68800;SDS011;55784;50.734;7.086;2022-12-07T12:22:02;9.57;;;3.00;;
68800;SDS011;55784;50.734;7.086;2022-12-07T12:24:51;11.57;;;3.47;;
68800;SDS011;55784;50.734;7.086;2022-12-07T12:27:26;10.60;;;2.90;;
68800;SDS011;55784;50.734;7.086;2022-12-07T12:29:55;12.35;;;3.40;;
68800;SDS011;55784;50.734;7.086;2022-12-07T12:32:28;14.95;;;3.45;;
68800;SDS011;55784;50.734;7.086;2022-12-07T12:37:53;12.90;;;3.67;;
68800;SDS011;55784;50.734;7.086;2022-12-07T12:45:31;14.48;;;3.90;;
68800;SDS011;55784;50.734;7.086;2022-12-07T12:47:58;10.88;;;3.70;;
68800;SDS011;55784;50.734;7.086;2022-12-07T12:50:42;13.25;;;3.85;;
68800;SDS011;55784;50.734;7.086;2022-12-07T12:53:21;12.43;;;4.03;;
68800;SDS011;55784;50.734;7.086;2022-12-07T13:00:42;11.45;;;4.03;;
68800;SDS011;55784;50.734;7.086;2022-12-07T13:03:16;11.80;;;3.63;;
68800;SDS011;55784;50.734;7.086;2022-12-07T13:05:48;10.85;;;3.58;;
68800;SDS011;55784;50.734;7.086;2022-12-07T13:08:49;11.13;;;4.20;;
68800;SDS011;55784;50.734;7.086;2022-12-07T13:11:17;11.90;;;3.93;;
68800;SDS011;55784;50.734;7.086;2022-12-07T13:13:45;13.75;;;4.28;;
68800;SDS011;55784;50.734;7.086;2022-12-07T13:18:38;14.53;;;4.40;;
68800;SDS011;55784;50.734;7.086;2022-12-07T13:26:19;12.27;;;4.53;;
68800;SDS011;55784;50.734;7.086;2022-12-07T13:31:35;13.67;;;4.87;;
68800;SDS011;55784;50.734;7.086;2022-12-07T13:34:05;14.13;;;4.47;;
68800;SDS011;55784;50.734;7.086;2022-12-07T13:36:50;14.48;;;4.80;;
68800;SDS011;55784;50.734;7.086;2022-12-07T13:39:17;14.55;;;4.97;;
68800;SDS011;55784;50.734;7.086;2022-12-07T13:41:49;14.00;;;4.90;;
68800;SDS011;55784;50.734;7.086;2022-12-07T13:44:19;14.67;;;4.83;;
68800;SDS011;55784;50.734;7.086;2022-12-07T13:46:52;15.27;;;5.25;;
68800;SDS011;55784;50.734;7.086;2022-12-07T13:49:28;13.73;;;4.95;;
68800;SDS011;55784;50.734;7.086;2022-12-07T13:54:42;12.60;;;4.30;;
68800;SDS011;55784;50.734;7.086;2022-12-07T13:57:08;10.93;;;3.83;;
68800;SDS011;55784;50.734;7.086;2022-12-07T13:59:36;13.05;;;4.57;;
68800;SDS011;55784;50.734;7.086;2022-12-07T14:02:16;13.13;;;5.05;;
68800;SDS011;55784;50.734;7.086;2022-12-07T14:04:43;12.30;;;4.65;;
68800;SDS011;55784;50.734;7.086;2022-12-07T14:07:19;10.63;;;3.83;;
68800;SDS011;55784;50.734;7.086;2022-12-07T14:09:53;9.20;;;3.10;;
68800;SDS011;55784;50.734;7.086;2022-12-07T14:12:24;7.70;;;2.30;;
68800;SDS011;55784;50.734;7.086;2022-12-07T14:14:51;10.38;;;2.80;;
68800;SDS011;55784;50.734;7.086;2022-12-07T14:17:21;9.00;;;2.97;;
68800;SDS011;55784;50.734;7.086;2022-12-07T14:19:49;9.20;;;3.03;;
68800;SDS011;55784;50.734;7.086;2022-12-07T14:22:23;9.60;;;3.15;;
68800;SDS011;55784;50.734;7.086;2022-12-07T14:25:02;7.85;;;2.70;;
68800;SDS011;55784;50.734;7.086;2022-12-07T14:28:24;6.72;;;1.85;;
68800;SDS011;55784;50.734;7.086;2022-12-07T14:30:50;8.13;;;2.00;;
68800;SDS011;55784;50.734;7.086;2022-12-07T14:33:22;11.33;;;3.23;;
68800;SDS011;55784;50.734;7.086;2022-12-07T14:35:49;8.23;;;2.10;;
68800;SDS011;55784;50.734;7.086;2022-12-07T14:38:15;8.15;;;1.80;;
68800;SDS011;55784;50.734;7.086;2022-12-07T14:40:40;6.90;;;1.80;;
68800;SDS011;55784;50.734;7.086;2022-12-07T14:43:08;5.90;;;1.60;;
68800;SDS011;55784;50.734;7.086;2022-12-07T14:45:36;6.93;;;2.03;;
68800;SDS011;55784;50.734;7.086;2022-12-07T14:48:01;9.50;;;1.90;;
68800;SDS011;55784;50.734;7.086;2022-12-07T14:50:26;10.13;;;2.30;;
68800;SDS011;55784;50.734;7.086;2022-12-07T14:53:03;7.80;;;2.60;;
68800;SDS011;55784;50.734;7.086;2022-12-07T14:55:36;10.10;;;2.90;;
68800;SDS011;55784;50.734;7.086;2022-12-07T14:58:01;11.20;;;3.10;;
68800;SDS011;55784;50.734;7.086;2022-12-07T15:00:27;11.83;;;3.10;;
68800;SDS011;55784;50.734;7.086;2022-12-07T15:02:53;11.68;;;3.63;;
68800;SDS011;55784;50.734;7.086;2022-12-07T15:05:20;11.48;;;3.08;;
68800;SDS011;55784;50.734;7.086;2022-12-07T15:07:46;10.57;;;3.70;;
68800;SDS011;55784;50.734;7.086;2022-12-07T15:10:17;11.10;;;3.60;;
68800;SDS011;55784;50.734;7.086;2022-12-07T15:12:44;11.15;;;3.90;;
68800;SDS011;55784;50.734;7.086;2022-12-07T15:15:10;13.10;;;3.95;;
68800;SDS011;55784;50.734;7.086;2022-12-07T15:17:38;13.03;;;4.10;;
68800;SDS011;55784;50.734;7.086;2022-12-07T15:20:04;12.23;;;4.10;;
68800;SDS011;55784;50.734;7.086;2022-12-07T15:22:36;16.58;;;4.30;;
68800;SDS011;55784;50.734;7.086;2022-12-07T15:25:01;11.77;;;4.77;;
68800;SDS011;55784;50.734;7.086;2022-12-07T15:27:26;12.83;;;4.60;;
68800;SDS011;55784;50.734;7.086;2022-12-07T15:29:52;12.43;;;4.57;;
68800;SDS011;55784;50.734;7.086;2022-12-07T15:32:18;14.25;;;4.35;;
68800;SDS011;55784;50.734;7.086;2022-12-07T15:34:44;14.93;;;4.40;;
68800;SDS011;55784;50.734;7.086;2022-12-07T15:37:09;12.07;;;4.23;;
68800;SDS011;55784;50.734;7.086;2022-12-07T15:39:35;14.73;;;5.23;;
68800;SDS011;55784;50.734;7.086;2022-12-07T15:42:02;10.27;;;4.22;;
68800;SDS011;55784;50.734;7.086;2022-12-07T15:44:27;12.85;;;4.30;;
68800;SDS011;55784;50.734;7.086;2022-12-07T15:47:11;14.50;;;4.53;;
68800;SDS011;55784;50.734;7.086;2022-12-07T15:49:37;11.00;;;4.10;;
68800;SDS011;55784;50.734;7.086;2022-12-07T15:52:02;13.07;;;4.50;;
68800;SDS011;55784;50.734;7.086;2022-12-07T15:54:28;13.40;;;4.20;;
68800;SDS011;55784;50.734;7.086;2022-12-07T15:56:54;16.25;;;5.35;;
68800;SDS011;55784;50.734;7.086;2022-12-07T15:59:26;13.07;;;4.38;;
68800;SDS011;55784;50.734;7.086;2022-12-07T16:01:55;13.65;;;4.40;;
68800;SDS011;55784;50.734;7.086;2022-12-07T16:04:21;11.55;;;3.95;;
68800;SDS011;55784;50.734;7.086;2022-12-07T16:06:46;12.80;;;4.70;;
68800;SDS011;55784;50.734;7.086;2022-12-07T16:09:11;12.73;;;4.20;;
68800;SDS011;55784;50.734;7.086;2022-12-07T16:11:37;13.55;;;4.38;;
68800;SDS011;55784;50.734;7.086;2022-12-07T16:14:02;14.87;;;4.60;;
68800;SDS011;55784;50.734;7.086;2022-12-07T16:16:28;13.63;;;4.60;;
68800;SDS011;55784;50.734;7.086;2022-12-07T16:18:54;10.75;;;4.10;;
68800;SDS011;55784;50.734;7.086;2022-12-07T16:21:19;14.37;;;4.53;;
68800;SDS011;55784;50.734;7.086;2022-12-07T16:23:45;12.53;;;4.40;;
68800;SDS011;55784;50.734;7.086;2022-12-07T16:26:12;12.23;;;4.47;;
68800;SDS011;55784;50.734;7.086;2022-12-07T16:28:41;14.75;;;4.95;;
68800;SDS011;55784;50.734;7.086;2022-12-07T16:31:08;14.48;;;4.68;;
68800;SDS011;55784;50.734;7.086;2022-12-07T16:33:36;12.98;;;4.57;;
68800;SDS011;55784;50.734;7.086;2022-12-07T16:36:04;12.98;;;4.65;;
68800;SDS011;55784;50.734;7.086;2022-12-07T16:38:34;13.70;;;4.50;;
68800;SDS011;55784;50.734;7.086;2022-12-07T16:41:06;12.85;;;4.80;;
68800;SDS011;55784;50.734;7.086;2022-12-07T16:43:32;12.02;;;5.25;;
68800;SDS011;55784;50.734;7.086;2022-12-07T16:45:58;12.38;;;5.28;;
68800;SDS011;55784;50.734;7.086;2022-12-07T16:48:24;14.67;;;5.80;;
68800;SDS011;55784;50.734;7.086;2022-12-07T16:50:49;14.17;;;5.20;;